sensor_id;sensor_type;location;lat;lon;timestamp;pressure;altitude;pressure_sealevel;temperature;humidity
22047;BME280;11187;49.412;20.956;2023-04-19T00:00:20;95041.75;;;8.22;100.00
22047;BME280;11187;49.412;20.956;2023-04-19T00:02:54;95046.84;;;8.25;100.00
22047;BME280;11187;49.412;20.956;2023-04-19T00:05:40;95041.72;;;8.26;100.00
22047;BME280;11187;49.412;20.956;2023-04-19T00:08:17;95040.81;;;8.30;100.00
22047;BME280;11187;49.412;20.956;2023-04-19T00:11:03;95035.72;;;8.32;100.00
22047;BME280;11187;49.412;20.956;2023-04-19T00:13:37;95033.13;;;8.35;100.00
22047;BME280;11187;49.412;20.956;2023-04-19T00:16:23;95029.72;;;8.34;100.00
22047;BME280;11187;49.412;20.956;2023-04-19T00:18:57;95026.31;;;8.35;100.00
22047;BME280;11187;49.412;20.956;2023-04-19T00:21:43;95026.31;;;8.35;100.00
22047;BME280;11187;49.412;20.956;2023-04-19T00:24:17;95018.66;;;8.35;100.00
22047;BME280;11187;49.412;20.956;2023-04-19T00:27:03;95010.16;;;8.38;100.00
22047;BME280;11187;49.412;20.956;2023-04-19T00:29:37;95013.53;;;8.39;100.00
22047;BME280;11187;49.412;20.956;2023-04-19T00:32:23;95005.88;;;8.39;100.00
22047;BME280;11187;49.412;20.956;2023-04-19T00:34:57;95005.88;;;8.42;100.00
22047;BME280;11187;49.412;20.956;2023-04-19T00:37:43;95010.97;;;8.42;100.00
22047;BME280;11187;49.412;20.956;2023-04-19T00:40:17;95008.41;;;8.42;100.00
22047;BME280;11187;49.412;20.956;2023-04-19T00:43:04;95004.16;;;8.42;100.00
22047;BME280;11187;49.412;20.956;2023-04-19T00:45:37;95003.28;;;8.45;100.00
22047;BME280;11187;49.412;20.956;2023-04-19T00:48:17;94996.47;;;8.45;100.00
22047;BME280;11187;49.412;20.956;2023-04-19T00:50:56;94999.00;;;8.47;100.00
22047;BME280;11187;49.412;20.956;2023-04-19T00:53:30;94997.28;;;8.49;100.00
22047;BME280;11187;49.412;20.956;2023-04-19T00:56:17;94993.03;;;8.49;100.00
22047;BME280;11187;49.412;20.956;2023-04-19T00:58:52;94996.44;;;8.50;100.00
22047;BME280;11187;49.412;20.956;2023-04-19T01:01:40;94989.59;;;8.50;100.00
22047;BME280;11187;49.412;20.956;2023-04-19T01:04:14;94988.72;;;8.51;100.00
22047;BME280;11187;49.412;20.956;2023-04-19T01:07:01;94986.16;;;8.53;100.00
22047;BME280;11187;49.412;20.956;2023-04-19T01:09:39;94987.88;;;8.52;100.00
22047;BME280;11187;49.412;20.956;2023-04-19T01:12:26;94985.34;;;8.52;100.00
22047;BME280;11187;49.412;20.956;2023-04-19T01:15:00;94981.06;;;8.51;100.00
22047;BME280;11187;49.412;20.956;2023-04-19T01:17:47;94975.19;;;8.49;100.00
22047;BME280;11187;49.412;20.956;2023-04-19T01:20:21;94967.53;;;8.48;100.00
22047;BME280;11187;49.412;20.956;2023-04-19T01:23:14;94972.66;;;8.46;100.00
22047;BME280;11187;49.412;20.956;2023-04-19T01:25:49;94968.38;;;8.47;100.00
22047;BME280;11187;49.412;20.956;2023-04-19T01:28:36;94970.97;;;8.45;100.00
22047;BME280;11187;49.412;20.956;2023-04-19T01:31:09;94964.16;;;8.44;100.00
22047;BME280;11187;49.412;20.956;2023-04-19T01:33:55;94969.25;;;8.44;100.00
22047;BME280;11187;49.412;20.956;2023-04-19T01:36:29;94959.09;;;8.43;100.00
22047;BME280;11187;49.412;20.956;2023-04-19T01:39:24;94959.09;;;8.41;100.00
22047;BME280;11187;49.412;20.956;2023-04-19T01:42:17;94950.63;;;8.41;100.00
22047;BME280;11187;49.412;20.956;2023-04-19T01:44:51;94949.75;;;8.40;100.00
22047;BME280;11187;49.412;20.956;2023-04-19T01:47:37;94946.34;;;8.40;100.00
22047;BME280;11187;49.412;20.956;2023-04-19T01:50:11;94937.84;;;8.37;100.00
22047;BME280;11187;49.412;20.956;2023-04-19T01:53:04;94939.56;;;8.39;100.00
22047;BME280;11187;49.412;20.956;2023-04-19T01:55:58;94935.31;;;8.37;100.00
22047;BME280;11187;49.412;20.956;2023-04-19T01:58:32;94929.38;;;8.37;100.00
22047;BME280;11187;49.412;20.956;2023-04-19T02:01:18;94934.47;;;8.39;100.00
22047;BME280;11187;49.412;20.956;2023-04-19T02:03:52;94931.06;;;8.38;100.00
22047;BME280;11187;49.412;20.956;2023-04-19T02:06:45;94929.34;;;8.39;100.00
22047;BME280;11187;49.412;20.956;2023-04-19T02:09:22;94931.91;;;8.39;100.00
22047;BME280;11187;49.412;20.956;2023-04-19T02:12:08;94925.09;;;8.39;100.00
22047;BME280;11187;49.412;20.956;2023-04-19T02:14:42;94925.97;;;8.38;100.00
22047;BME280;11187;49.412;20.956;2023-04-19T02:17:29;94928.53;;;8.36;100.00
22047;BME280;11187;49.412;20.956;2023-04-19T02:20:02;94920.88;;;8.35;100.00
22047;BME280;11187;49.412;20.956;2023-04-19T02:22:49;94923.44;;;8.36;100.00
22047;BME280;11187;49.412;20.956;2023-04-19T02:25:23;94920.03;;;8.34;100.00
22047;BME280;11187;49.412;20.956;2023-04-19T02:28:09;94914.94;;;8.34;100.00
22047;BME280;11187;49.412;20.956;2023-04-19T02:30:43;94916.63;;;8.35;100.00
22047;BME280;11187;49.412;20.956;2023-04-19T02:33:29;94906.47;;;8.34;100.00
22047;BME280;11187;49.412;20.956;2023-04-19T02:36:03;94912.41;;;8.34;100.00
22047;BME280;11187;49.412;20.956;2023-04-19T02:38:56;94910.69;;;8.35;100.00
22047;BME280;11187;49.412;20.956;2023-04-19T02:41:50;94908.13;;;8.35;100.00
22047;BME280;11187;49.412;20.956;2023-04-19T02:44:24;94900.47;;;8.35;100.00
22047;BME280;11187;49.412;20.956;2023-04-19T02:47:10;94901.34;;;8.34;100.00
22047;BME280;11187;49.412;20.956;2023-04-19T02:49:44;94897.94;;;8.35;100.00
22047;BME280;11187;49.412;20.956;2023-04-19T02:52:30;94897.09;;;8.34;100.00
22047;BME280;11187;49.412;20.956;2023-04-19T02:55:05;94891.16;;;8.34;100.00
22047;BME280;11187;49.412;20.956;2023-04-19T02:57:51;94891.16;;;8.34;100.00
22047;BME280;11187;49.412;20.956;2023-04-19T03:00:25;94886.88;;;8.34;100.00
22047;BME280;11187;49.412;20.956;2023-04-19T03:03:11;94878.41;;;8.34;100.00
22047;BME280;11187;49.412;20.956;2023-04-19T03:05:45;94874.13;;;8.34;100.00
22047;BME280;11187;49.412;20.956;2023-04-19T03:08:31;94874.97;;;8.35;100.00
22047;BME280;11187;49.412;20.956;2023-04-19T03:11:05;94873.25;;;8.37;100.00
22047;BME280;11187;49.412;20.956;2023-04-19T03:13:51;94868.16;;;8.35;100.00
22047;BME280;11187;49.412;20.956;2023-04-19T03:16:25;94868.97;;;8.37;100.00
22047;BME280;11187;49.412;20.956;2023-04-19T03:19:12;94868.16;;;8.35;100.00
22047;BME280;11187;49.412;20.956;2023-04-19T03:21:46;94863.94;;;8.34;100.00
22047;BME280;11187;49.412;20.956;2023-04-19T03:24:33;94863.94;;;8.34;100.00
22047;BME280;11187;49.412;20.956;2023-04-19T03:27:06;94867.31;;;8.35;100.00
22047;BME280;11187;49.412;20.956;2023-04-19T03:30:00;94858.00;;;8.34;100.00
22047;BME280;11187;49.412;20.956;2023-04-19T03:32:33;94858.84;;;8.34;100.00
22047;BME280;11187;49.412;20.956;2023-04-19T03:35:19;94860.53;;;8.34;100.00
22047;BME280;11187;49.412;20.956;2023-04-19T03:37:54;94859.72;;;8.33;100.00
22047;BME280;11187;49.412;20.956;2023-04-19T03:40:41;94857.16;;;8.33;100.00
22047;BME280;11187;49.412;20.956;2023-04-19T03:43:14;94858.00;;;8.32;100.00
22047;BME280;11187;49.412;20.956;2023-04-19T03:46:00;94847.81;;;8.32;100.00
22047;BME280;11187;49.412;20.956;2023-04-19T03:48:34;94843.59;;;8.31;100.00
22047;BME280;11187;49.412;20.956;2023-04-19T03:51:20;94850.38;;;8.31;100.00
22047;BME280;11187;49.412;20.956;2023-04-19T03:53:54;94843.59;;;8.30;100.00
22047;BME280;11187;49.412;20.956;2023-04-19T03:56:41;94847.81;;;8.31;100.00
22047;BME280;11187;49.412;20.956;2023-04-19T03:59:14;94842.72;;;8.31;100.00
22047;BME280;11187;49.412;20.956;2023-04-19T04:02:00;94850.41;;;8.29;100.00
22047;BME280;11187;49.412;20.956;2023-04-19T04:04:34;94850.41;;;8.29;100.00
22047;BME280;11187;49.412;20.956;2023-04-19T04:07:21;94844.44;;;8.29;100.00
22047;BME280;11187;49.412;20.956;2023-04-19T04:09:55;94853.81;;;8.28;100.00
22047;BME280;11187;49.412;20.956;2023-04-19T04:12:42;94843.66;;;8.27;100.00
22047;BME280;11187;49.412;20.956;2023-04-19T04:15:15;94841.06;;;8.28;100.00
22047;BME280;11187;49.412;20.956;2023-04-19T04:18:10;94845.31;;;8.28;100.00
22047;BME280;11187;49.412;20.956;2023-04-19T04:21:04;94849.59;;;8.27;100.00
22047;BME280;11187;49.412;20.956;2023-04-19T04:23:58;94848.75;;;8.27;100.00
22047;BME280;11187;49.412;20.956;2023-04-19T04:26:34;94846.19;;;8.27;100.00
22047;BME280;11187;49.412;20.956;2023-04-19T04:29:28;94847.03;;;8.27;100.00
22047;BME280;11187;49.412;20.956;2023-04-19T04:32:02;94847.03;;;8.26;100.00
22047;BME280;11187;49.412;20.956;2023-04-19T04:34:50;94846.22;;;8.25;100.00
22047;BME280;11187;49.412;20.956;2023-04-19T04:37:23;94845.38;;;8.25;100.00
22047;BME280;11187;49.412;20.956;2023-04-19T04:40:17;94841.16;;;8.22;100.00
22047;BME280;11187;49.412;20.956;2023-04-19T04:43:11;94837.72;;;8.23;100.00
22047;BME280;11187;49.412;20.956;2023-04-19T04:46:05;94842.00;;;8.23;100.00
22047;BME280;11187;49.412;20.956;2023-04-19T04:49:01;94844.53;;;8.23;100.00
22047;BME280;11187;49.412;20.956;2023-04-19T04:51:35;94835.19;;;8.22;100.00
22047;BME280;11187;49.412;20.956;2023-04-19T04:54:22;94836.91;;;8.21;100.00
22047;BME280;11187;49.412;20.956;2023-04-19T04:56:55;94835.19;;;8.22;100.00
22047;BME280;11187;49.412;20.956;2023-04-19T04:59:43;94836.06;;;8.21;100.00
22047;BME280;11187;49.412;20.956;2023-04-19T05:02:16;94838.63;;;8.21;100.00
22047;BME280;11187;49.412;20.956;2023-04-19T05:05:05;94836.91;;;8.21;100.00
22047;BME280;11187;49.412;20.956;2023-04-19T05:07:38;94830.97;;;8.21;100.00
22047;BME280;11187;49.412;20.956;2023-04-19T05:10:32;94839.44;;;8.23;100.00
22047;BME280;11187;49.412;20.956;2023-04-19T05:13:26;94832.69;;;8.20;100.00
22047;BME280;11187;49.412;20.956;2023-04-19T05:15:59;94827.66;;;8.12;100.00
22047;BME280;11187;49.412;20.956;2023-04-19T05:18:46;94835.38;;;8.11;100.00
22047;BME280;11187;49.412;20.956;2023-04-19T05:21:33;94831.94;;;8.10;100.00
22047;BME280;11187;49.412;20.956;2023-04-19T05:24:27;94832.00;;;8.09;100.00
22047;BME280;11187;49.412;20.956;2023-04-19T05:27:00;94826.06;;;8.07;100.00
22047;BME280;11187;49.412;20.956;2023-04-19T05:29:54;94827.78;;;8.05;100.00
22047;BME280;11187;49.412;20.956;2023-04-19T05:32:27;94816.78;;;8.01;100.00
22047;BME280;11187;49.412;20.956;2023-04-19T05:35:21;94829.56;;;8.00;100.00
22047;BME280;11187;49.412;20.956;2023-04-19T05:38:15;94826.19;;;7.98;100.00
22047;BME280;11187;49.412;20.956;2023-04-19T05:40:49;94822.78;;;7.97;100.00
22047;BME280;11187;49.412;20.956;2023-04-19T05:43:36;94819.38;;;7.98;100.00
22047;BME280;11187;49.412;20.956;2023-04-19T05:46:09;94819.31;;;8.01;100.00
22047;BME280;11187;49.412;20.956;2023-04-19T05:49:03;94819.31;;;8.03;100.00
22047;BME280;11187;49.412;20.956;2023-04-19T05:51:57;94811.59;;;8.06;100.00
22047;BME280;11187;49.412;20.956;2023-04-19T05:54:30;94806.44;;;8.12;100.00
22047;BME280;11187;49.412;20.956;2023-04-19T05:57:17;94806.38;;;8.16;100.00
22047;BME280;11187;49.412;20.956;2023-04-19T05:59:50;94806.34;;;8.18;100.00
22047;BME280;11187;49.412;20.956;2023-04-19T06:02:37;94800.31;;;8.24;100.00
22047;BME280;11187;49.412;20.956;2023-04-19T06:05:10;94795.16;;;8.28;100.00
22047;BME280;11187;49.412;20.956;2023-04-19T06:07:57;94801.88;;;8.34;100.00
22047;BME280;11187;49.412;20.956;2023-04-19T06:10:30;94810.31;;;8.39;100.00
22047;BME280;11187;49.412;20.956;2023-04-19T06:13:33;94806.88;;;8.42;100.00
22047;BME280;11187;49.412;20.956;2023-04-19T06:16:07;94805.09;;;8.47;100.00
22047;BME280;11187;49.412;20.956;2023-04-19T06:18:54;94806.81;;;8.46;100.00
22047;BME280;11187;49.412;20.956;2023-04-19T06:21:41;94805.09;;;8.48;100.00
22047;BME280;11187;49.412;20.956;2023-04-19T06:24:35;94806.72;;;8.54;100.00
22047;BME280;11187;49.412;20.956;2023-04-19T06:27:29;94803.28;;;8.56;100.00
22047;BME280;11187;49.412;20.956;2023-04-19T06:30:05;94806.59;;;8.60;100.00
22047;BME280;11187;49.412;20.956;2023-04-19T06:32:59;94812.50;;;8.64;100.00
22047;BME280;11187;49.412;20.956;2023-04-19T06:35:32;94816.72;;;8.68;100.00
22047;BME280;11187;49.412;20.956;2023-04-19T06:38:19;94812.38;;;8.71;100.00
22047;BME280;11187;49.412;20.956;2023-04-19T06:40:52;94817.47;;;8.73;100.00
22047;BME280;11187;49.412;20.956;2023-04-19T06:43:42;94814.03;;;8.75;100.00
22047;BME280;11187;49.412;20.956;2023-04-19T06:46:16;94813.19;;;8.75;100.00
22047;BME280;11187;49.412;20.956;2023-04-19T06:49:03;94814.94;;;8.71;100.00
22047;BME280;11187;49.412;20.956;2023-04-19T06:51:38;94813.13;;;8.76;100.00
22047;BME280;11187;49.412;20.956;2023-04-19T06:54:32;94807.13;;;8.81;100.00
22047;BME280;11187;49.412;20.956;2023-04-19T06:57:26;94807.03;;;8.85;100.00
22047;BME280;11187;49.412;20.956;2023-04-19T07:00:21;94806.19;;;8.86;100.00
22047;BME280;11187;49.412;20.956;2023-04-19T07:02:54;94809.56;;;8.88;100.00
22047;BME280;11187;49.412;20.956;2023-04-19T07:05:48;94805.22;;;8.93;100.00
22047;BME280;11187;49.412;20.956;2023-04-19T07:08:44;94802.59;;;8.98;100.00
22047;BME280;11187;49.412;20.956;2023-04-19T07:11:17;94796.59;;;8.99;100.00
22047;BME280;11187;49.412;20.956;2023-04-19T07:14:04;94805.91;;;9.03;100.00
22047;BME280;11187;49.412;20.956;2023-04-19T07:16:37;94803.34;;;9.03;100.00
22047;BME280;11187;49.412;20.956;2023-04-19T07:19:25;94805.06;;;9.01;100.00
22047;BME280;11187;49.412;20.956;2023-04-19T07:22:19;94801.75;;;8.97;100.00
22047;BME280;11187;49.412;20.956;2023-04-19T07:25:13;94801.75;;;8.97;100.00
22047;BME280;11187;49.412;20.956;2023-04-19T07:28:07;94800.91;;;8.97;100.00
22047;BME280;11187;49.412;20.956;2023-04-19T07:30:40;94806.81;;;8.99;100.00
22047;BME280;11187;49.412;20.956;2023-04-19T07:33:27;94807.53;;;9.07;100.00
22047;BME280;11187;49.412;20.956;2023-04-19T07:36:00;94801.41;;;9.17;100.00
22047;BME280;11187;49.412;20.956;2023-04-19T07:38:54;94806.34;;;9.27;100.00
22047;BME280;11187;49.412;20.956;2023-04-19T07:41:27;94800.34;;;9.28;100.00
22047;BME280;11187;49.412;20.956;2023-04-19T07:44:15;94802.88;;;9.29;100.00
22047;BME280;11187;49.412;20.956;2023-04-19T07:46:48;94804.63;;;9.27;100.00
22047;BME280;11187;49.412;20.956;2023-04-19T07:49:35;94814.88;;;9.24;100.00
22047;BME280;11187;49.412;20.956;2023-04-19T07:52:09;94809.84;;;9.21;100.00
22047;BME280;11187;49.412;20.956;2023-04-19T07:54:57;94818.41;;;9.17;100.00
22047;BME280;11187;49.412;20.956;2023-04-19T07:57:30;94814.38;;;9.05;100.00
22047;BME280;11187;49.412;20.956;2023-04-19T08:00:17;94816.16;;;9.00;100.00
22047;BME280;11187;49.412;20.956;2023-04-19T08:02:53;94819.66;;;8.94;100.00
22047;BME280;11187;49.412;20.956;2023-04-19T08:05:40;94806.13;;;8.91;100.00
22047;BME280;11187;49.412;20.956;2023-04-19T08:08:13;94812.88;;;8.95;100.00
22047;BME280;11187;49.412;20.956;2023-04-19T08:11:03;94817.97;;;8.93;100.00
22047;BME280;11187;49.412;20.956;2023-04-19T08:13:36;94820.56;;;8.92;100.00
22047;BME280;11187;49.412;20.956;2023-04-19T08:16:43;94818.91;;;8.88;100.00
22047;BME280;11187;49.412;20.956;2023-04-19T08:19:19;94811.38;;;8.82;100.00
22047;BME280;11187;49.412;20.956;2023-04-19T08:22:06;94817.41;;;8.77;100.00
22047;BME280;11187;49.412;20.956;2023-04-19T08:24:39;94821.81;;;8.66;100.00
22047;BME280;11187;49.412;20.956;2023-04-19T08:27:26;94812.59;;;8.59;100.00
22047;BME280;11187;49.412;20.956;2023-04-19T08:29:59;94820.31;;;8.54;100.00
22047;BME280;11187;49.412;20.956;2023-04-19T08:32:47;94825.44;;;8.51;100.00
22047;BME280;11187;49.412;20.956;2023-04-19T08:35:22;94822.94;;;8.48;100.00
22047;BME280;11187;49.412;20.956;2023-04-19T08:38:10;94825.50;;;8.50;100.00
22047;BME280;11187;49.412;20.956;2023-04-19T08:40:50;94823.75;;;8.52;100.00
22047;BME280;11187;49.412;20.956;2023-04-19T08:43:46;94826.25;;;8.53;100.00
22047;BME280;11187;49.412;20.956;2023-04-19T08:46:23;94822.88;;;8.54;100.00
22047;BME280;11187;49.412;20.956;2023-04-19T08:49:10;94823.53;;;8.66;100.00
22047;BME280;11187;49.412;20.956;2023-04-19T08:51:43;94817.34;;;8.81;100.00
22047;BME280;11187;49.412;20.956;2023-04-19T08:54:34;94818.72;;;9.00;100.00
22047;BME280;11187;49.412;20.956;2023-04-19T08:57:08;94822.63;;;9.19;100.00
22047;BME280;11187;49.412;20.956;2023-04-19T08:59:55;94825.00;;;9.29;100.00
22047;BME280;11187;49.412;20.956;2023-04-19T09:02:43;94830.91;;;9.34;100.00
22047;BME280;11187;49.412;20.956;2023-04-19T09:05:37;94824.91;;;9.36;100.00
22047;BME280;11187;49.412;20.956;2023-04-19T09:08:25;94826.34;;;9.50;100.00
22047;BME280;11187;49.412;20.956;2023-04-19T09:11:12;94824.28;;;9.67;100.00
22047;BME280;11187;49.412;20.956;2023-04-19T09:13:45;94816.50;;;9.73;100.00
22047;BME280;11187;49.412;20.956;2023-04-19T09:16:42;94822.41;;;9.77;100.00
22047;BME280;11187;49.412;20.956;2023-04-19T09:19:48;94821.69;;;9.70;100.00
22047;BME280;11187;49.412;20.956;2023-04-19T09:22:42;94817.53;;;9.65;100.00
22047;BME280;11187;49.412;20.956;2023-04-19T09:25:24;94812.38;;;9.68;100.00
22047;BME280;11187;49.412;20.956;2023-04-19T09:28:31;94816.59;;;9.70;100.00
22047;BME280;11187;49.412;20.956;2023-04-19T09:31:10;94819.09;;;9.72;100.00
22047;BME280;11187;49.412;20.956;2023-04-19T09:34:18;94813.97;;;9.72;100.00
22047;BME280;11187;49.412;20.956;2023-04-19T09:36:51;94813.34;;;9.60;100.00
22047;BME280;11187;49.412;20.956;2023-04-19T09:39:45;94823.78;;;9.50;100.00
22047;BME280;11187;49.412;20.956;2023-04-19T09:42:43;94824.91;;;9.36;100.00
22047;BME280;11187;49.412;20.956;2023-04-19T09:45:27;94826.78;;;9.25;100.00
22047;BME280;11187;49.412;20.956;2023-04-19T09:48:17;94832.91;;;9.15;100.00
22047;BME280;11187;49.412;20.956;2023-04-19T09:50:59;94824.56;;;9.07;100.00
22047;BME280;11187;49.412;20.956;2023-04-19T09:53:45;94827.22;;;9.01;100.00
22047;BME280;11187;49.412;20.956;2023-04-19T09:56:25;94829.00;;;8.95;100.00
22047;BME280;11187;49.412;20.956;2023-04-19T09:59:06;94831.66;;;8.91;100.00
22047;BME280;11187;49.412;20.956;2023-04-19T10:01:51;94833.47;;;8.83;100.00
22047;BME280;11187;49.412;20.956;2023-04-19T10:04:46;94832.78;;;8.73;100.00
22047;BME280;11187;49.412;20.956;2023-04-19T10:07:40;94838.78;;;8.69;100.00
22047;BME280;11187;49.412;20.956;2023-04-19T10:10:28;94832.09;;;8.63;100.00
22047;BME280;11187;49.412;20.956;2023-04-19T10:13:11;94837.28;;;8.59;100.00
22047;BME280;11187;49.412;20.956;2023-04-19T10:16:09;94843.22;;;8.56;100.00
22047;BME280;11187;49.412;20.956;2023-04-19T10:18:47;94830.53;;;8.54;100.00
22047;BME280;11187;49.412;20.956;2023-04-19T10:21:35;94841.50;;;8.60;100.00
22047;BME280;11187;49.412;20.956;2023-04-19T10:24:11;94836.31;;;8.66;100.00
22047;BME280;11187;49.412;20.956;2023-04-19T10:27:09;94843.13;;;8.65;100.00
22047;BME280;11187;49.412;20.956;2023-04-19T10:29:59;94839.75;;;8.63;100.00
22047;BME280;11187;49.412;20.956;2023-04-19T10:33:00;94838.03;;;8.64;100.00
22047;BME280;11187;49.412;20.956;2023-04-19T10:35:36;94841.50;;;8.60;100.00
22047;BME280;11187;49.412;20.956;2023-04-19T10:41:09;94844.94;;;8.55;100.00
22047;BME280;11187;49.412;20.956;2023-04-19T10:44:10;94843.06;;;8.67;100.00
22047;BME280;11187;49.412;20.956;2023-04-19T10:46:45;94845.56;;;8.71;100.00
22047;BME280;11187;49.412;20.956;2023-04-19T10:49:43;94843.00;;;8.73;100.00
22047;BME280;11187;49.412;20.956;2023-04-19T10:52:26;94843.66;;;8.86;100.00
22047;BME280;11187;49.412;20.956;2023-04-19T10:55:24;94845.22;;;8.93;100.00
22047;BME280;11187;49.412;20.956;2023-04-19T10:58:18;94847.56;;;9.07;100.00
22047;BME280;11187;49.412;20.956;2023-04-19T11:01:45;94849.88;;;9.20;100.00
22047;BME280;11187;49.412;20.956;2023-04-19T11:07:25;94854.91;;;9.25;100.00
22047;BME280;11187;49.412;20.956;2023-04-19T11:09:58;94854.75;;;9.33;100.00
22047;BME280;11187;49.412;20.956;2023-04-19T11:12:45;94849.69;;;9.31;100.00
22047;BME280;11187;49.412;20.956;2023-04-19T11:15:21;94858.13;;;9.35;100.00
22047;BME280;11187;49.412;20.956;2023-04-19T11:18:17;94853.91;;;9.32;100.00
22047;BME280;11187;49.412;20.956;2023-04-19T11:20:52;94856.63;;;9.23;100.00
22047;BME280;11187;49.412;20.956;2023-04-19T11:23:47;94852.34;;;9.25;100.00
22047;BME280;11187;49.412;20.956;2023-04-19T11:26:22;94853.91;;;9.34;100.00
22047;BME280;11187;49.412;20.956;2023-04-19T11:29:10;94862.22;;;9.45;100.00
22047;BME280;11187;49.412;20.956;2023-04-19T11:31:44;94861.13;;;9.57;100.00
22047;BME280;11187;49.412;20.956;2023-04-19T11:34:35;94862.56;;;9.72;100.00
22047;BME280;11187;49.412;20.956;2023-04-19T11:37:09;94857.97;;;9.88;100.00
22047;BME280;11187;49.412;20.956;2023-04-19T11:39:56;94860.25;;;10.03;100.00
22047;BME280;11187;49.412;20.956;2023-04-19T11:42:31;94862.03;;;9.99;100.00
22047;BME280;11187;49.412;20.956;2023-04-19T11:45:32;94862.50;;;10.18;100.00
22047;BME280;11187;49.412;20.956;2023-04-19T11:48:27;94858.00;;;10.69;100.00
22047;BME280;11187;49.412;20.956;2023-04-19T11:51:04;94856.97;;;10.76;98.55
22047;BME280;11187;49.412;20.956;2023-04-19T11:53:51;94855.63;;;10.61;100.00
22047;BME280;11187;49.412;20.956;2023-04-19T11:56:24;94856.38;;;10.64;100.00
22047;BME280;11187;49.412;20.956;2023-04-19T11:59:18;94857.16;;;10.68;100.00
22047;BME280;11187;49.412;20.956;2023-04-19T12:02:12;94856.03;;;10.80;100.00
22047;BME280;11187;49.412;20.956;2023-04-19T12:05:10;94858.59;;;10.80;97.52
22047;BME280;11187;49.412;20.956;2023-04-19T12:08:05;94850.25;;;10.72;100.00
22047;BME280;11187;49.412;20.956;2023-04-19T12:10:55;94860.69;;;10.62;99.95
22047;BME280;11187;49.412;20.956;2023-04-19T12:13:31;94850.84;;;10.45;98.57
22047;BME280;11187;49.412;20.956;2023-04-19T12:16:26;94857.19;;;10.29;99.82
22047;BME280;11187;49.412;20.956;2023-04-19T12:19:20;94855.44;;;10.31;100.00
22047;BME280;11187;49.412;20.956;2023-04-19T12:22:10;94844.13;;;10.40;100.00
22047;BME280;11187;49.412;20.956;2023-04-19T12:24:59;94845.53;;;10.55;99.05
22047;BME280;11187;49.412;20.956;2023-04-19T12:27:32;94844.50;;;10.62;98.54
22047;BME280;11187;49.412;20.956;2023-04-19T12:30:26;94839.69;;;10.50;97.35
22047;BME280;11187;49.412;20.956;2023-04-19T12:33:21;94845.44;;;10.58;99.89
22047;BME280;11187;49.412;20.956;2023-04-19T12:35:54;94848.06;;;10.56;98.69
22047;BME280;11187;49.412;20.956;2023-04-19T12:38:41;94845.53;;;10.53;100.00
22047;BME280;11187;49.412;20.956;2023-04-19T12:41:14;94845.53;;;10.53;99.98
22047;BME280;11187;49.412;20.956;2023-04-19T12:44:08;94839.72;;;10.47;99.40
22047;BME280;11187;49.412;20.956;2023-04-19T12:47:02;94845.09;;;10.36;97.95
22047;BME280;11187;49.412;20.956;2023-04-19T12:49:35;94843.47;;;10.32;98.28
22047;BME280;11187;49.412;20.956;2023-04-19T12:52:22;94847.81;;;10.27;98.57
22047;BME280;11187;49.412;20.956;2023-04-19T12:54:55;94843.34;;;10.38;99.58
22047;BME280;11187;49.412;20.956;2023-04-19T12:57:49;94847.78;;;10.28;96.61
22047;BME280;11187;49.412;20.956;2023-04-19T13:00:43;94848.72;;;10.24;98.26
22047;BME280;11187;49.412;20.956;2023-04-19T13:03:37;94834.16;;;10.28;98.77
22047;BME280;11187;49.412;20.956;2023-04-19T13:06:10;94837.22;;;10.45;98.53
22047;BME280;11187;49.412;20.956;2023-04-19T13:09:04;94843.69;;;10.60;97.03
22047;BME280;11187;49.412;20.956;2023-04-19T13:11:40;94826.44;;;10.68;98.00
22047;BME280;11187;49.412;20.956;2023-04-19T13:14:34;94837.50;;;10.70;95.40
22047;BME280;11187;49.412;20.956;2023-04-19T13:17:07;94834.03;;;10.71;96.91
22047;BME280;11187;49.412;20.956;2023-04-19T13:20:01;94837.53;;;10.69;94.97
22047;BME280;11187;49.412;20.956;2023-04-19T13:22:55;94838.75;;;10.52;94.61
22047;BME280;11187;49.412;20.956;2023-04-19T13:25:49;94838.25;;;10.36;95.20
22047;BME280;11187;49.412;20.956;2023-04-19T13:28:22;94848.03;;;10.17;95.07
22047;BME280;11187;49.412;20.956;2023-04-19T13:31:10;94847.31;;;10.11;98.06
22047;BME280;11187;49.412;20.956;2023-04-19T13:33:43;94845.41;;;10.19;97.86
22047;BME280;11187;49.412;20.956;2023-04-19T13:36:37;94848.66;;;10.27;96.58
22047;BME280;11187;49.412;20.956;2023-04-19T13:39:31;94851.19;;;10.30;96.55
22047;BME280;11187;49.412;20.956;2023-04-19T13:42:25;94849.50;;;10.29;97.45
22047;BME280;11187;49.412;20.956;2023-04-19T13:44:58;94864.97;;;10.21;95.41
22047;BME280;11187;49.412;20.956;2023-04-19T13:47:45;94854.13;;;10.10;95.83
22047;BME280;11187;49.412;20.956;2023-04-19T13:50:18;94854.13;;;10.10;97.82
22047;BME280;11187;49.412;20.956;2023-04-19T13:53:05;94861.03;;;10.07;96.76
22047;BME280;11187;49.412;20.956;2023-04-19T13:55:38;94856.97;;;9.96;95.75
22047;BME280;11187;49.412;20.956;2023-04-19T13:58:25;94857.09;;;9.90;97.07
22047;BME280;11187;49.412;20.956;2023-04-19T14:00:58;94858.88;;;9.87;97.57
22047;BME280;11187;49.412;20.956;2023-04-19T14:03:45;94858.03;;;9.86;97.45
22047;BME280;11187;49.412;20.956;2023-04-19T14:06:18;94859.75;;;9.86;98.32
22047;BME280;11187;49.412;20.956;2023-04-19T14:09:12;94857.97;;;9.89;99.07
22047;BME280;11187;49.412;20.956;2023-04-19T14:11:45;94850.31;;;9.88;97.94
22047;BME280;11187;49.412;20.956;2023-04-19T14:14:32;94852.00;;;9.89;98.05
22047;BME280;11187;49.412;20.956;2023-04-19T14:17:05;94857.13;;;9.89;98.72
22047;BME280;11187;49.412;20.956;2023-04-19T14:19:59;94852.00;;;9.89;98.77
22047;BME280;11187;49.412;20.956;2023-04-19T14:22:53;94859.63;;;9.92;99.74